sensor_id;sensor_type;location;lat;lon;timestamp;pressure;altitude;pressure_sealevel;temperature;humidity
78383;BME280;67668;52.294;4.692;2023-08-12T00:00:50;101789.56;;;22.64;65.50
78383;BME280;67668;52.294;4.692;2023-08-12T00:03:15;101777.31;;;22.62;65.50
78383;BME280;67668;52.294;4.692;2023-08-12T00:05:41;101780.19;;;22.60;65.60
78383;BME280;67668;52.294;4.692;2023-08-12T00:08:08;101776.25;;;22.56;65.74
78383;BME280;67668;52.294;4.692;2023-08-12T00:10:34;101771.03;;;22.55;65.60
78383;BME280;67668;52.294;4.692;2023-08-12T00:13:01;101778.50;;;22.53;65.54
78383;BME280;67668;52.294;4.692;2023-08-12T00:15:26;101771.44;;;22.52;65.48
78383;BME280;67668;52.294;4.692;2023-08-12T00:17:52;101769.13;;;22.49;66.05
78383;BME280;67668;52.294;4.692;2023-08-12T00:20:17;101768.50;;;22.47;66.24
78383;BME280;67668;52.294;4.692;2023-08-12T00:22:43;101769.53;;;22.46;66.03
78383;BME280;67668;52.294;4.692;2023-08-12T00:25:08;101770.56;;;22.45;66.33
78383;BME280;67668;52.294;4.692;2023-08-12T00:27:34;101769.09;;;22.42;66.16
78383;BME280;67668;52.294;4.692;2023-08-12T00:30:00;101759.53;;;22.40;66.45
78383;BME280;67668;52.294;4.692;2023-08-12T00:32:26;101765.75;;;22.40;66.53
78383;BME280;67668;52.294;4.692;2023-08-12T00:34:51;101761.56;;;22.38;66.49
78383;BME280;67668;52.294;4.692;2023-08-12T00:37:17;101763.81;;;22.34;67.09
78383;BME280;67668;52.294;4.692;2023-08-12T00:39:42;101756.97;;;22.32;66.95
78383;BME280;67668;52.294;4.692;2023-08-12T00:42:08;101761.72;;;22.30;66.95
78383;BME280;67668;52.294;4.692;2023-08-12T00:44:33;101751.34;;;22.27;67.14
78383;BME280;67668;52.294;4.692;2023-08-12T00:46:59;101748.00;;;22.25;66.94
78383;BME280;67668;52.294;4.692;2023-08-12T00:49:25;101746.53;;;22.22;67.27
78383;BME280;67668;52.294;4.692;2023-08-12T00:51:52;101753.78;;;22.22;67.65
78383;BME280;67668;52.294;4.692;2023-08-12T00:54:19;101746.06;;;22.19;67.58
78383;BME280;67668;52.294;4.692;2023-08-12T00:56:48;101757.44;;;22.14;68.45
78383;BME280;67668;52.294;4.692;2023-08-12T00:59:14;101749.56;;;22.12;68.10
78383;BME280;67668;52.294;4.692;2023-08-12T01:01:40;101743.34;;;22.12;67.77
78383;BME280;67668;52.294;4.692;2023-08-12T01:04:08;101742.50;;;22.11;67.99
78383;BME280;67668;52.294;4.692;2023-08-12T01:06:34;101740.84;;;22.10;68.04
78383;BME280;67668;52.294;4.692;2023-08-12T01:09:01;101731.06;;;22.09;68.42
78383;BME280;67668;52.294;4.692;2023-08-12T01:11:36;101728.56;;;22.08;68.30
78383;BME280;67668;52.294;4.692;2023-08-12T01:14:10;101730.81;;;22.04;68.89
78383;BME280;67668;52.294;4.692;2023-08-12T01:16:42;101730.19;;;22.02;69.35
78383;BME280;67668;52.294;4.692;2023-08-12T01:19:11;101731.22;;;22.01;68.93
78383;BME280;67668;52.294;4.692;2023-08-12T01:21:43;101722.50;;;21.99;69.21
78383;BME280;67668;52.294;4.692;2023-08-12T01:24:09;101719.16;;;21.97;68.45
78383;BME280;67668;52.294;4.692;2023-08-12T01:26:34;101722.88;;;21.96;69.03
78383;BME280;67668;52.294;4.692;2023-08-12T01:29:01;101720.38;;;21.95;68.68
78383;BME280;67668;52.294;4.692;2023-08-12T01:31:50;101715.81;;;21.95;68.47
78383;BME280;67668;52.294;4.692;2023-08-12T01:34:47;101716.66;;;21.96;68.74
78383;BME280;67668;52.294;4.692;2023-08-12T01:37:19;101711.44;;;21.94;68.55
78383;BME280;67668;52.294;4.692;2023-08-12T01:39:48;101702.56;;;21.94;68.75
78383;BME280;67668;52.294;4.692;2023-08-12T01:42:14;101702.72;;;21.92;68.70
78383;BME280;67668;52.294;4.692;2023-08-12T01:44:42;101692.13;;;21.91;69.14
78383;BME280;67668;52.294;4.692;2023-08-12T01:47:09;101690.47;;;21.90;69.01
78383;BME280;67668;52.294;4.692;2023-08-12T01:49:34;101690.47;;;21.90;69.35
78383;BME280;67668;52.294;4.692;2023-08-12T01:51:59;101699.94;;;21.86;69.67
78383;BME280;67668;52.294;4.692;2023-08-12T01:54:26;101696.63;;;21.84;69.66
78383;BME280;67668;52.294;4.692;2023-08-12T01:56:51;101699.88;;;21.79;70.00
78383;BME280;67668;52.294;4.692;2023-08-12T01:59:17;101694.50;;;21.79;70.38
78383;BME280;67668;52.294;4.692;2023-08-12T02:01:42;101695.53;;;21.78;69.97
78383;BME280;67668;52.294;4.692;2023-08-12T02:04:07;101685.78;;;21.77;70.15
78383;BME280;67668;52.294;4.692;2023-08-12T02:06:33;101689.50;;;21.76;70.77
78383;BME280;67668;52.294;4.692;2023-08-12T02:08:58;101685.13;;;21.75;70.46
78383;BME280;67668;52.294;4.692;2023-08-12T02:11:24;101680.78;;;21.74;70.41
78383;BME280;67668;52.294;4.692;2023-08-12T02:13:49;101673.72;;;21.73;69.92
78383;BME280;67668;52.294;4.692;2023-08-12T02:16:14;101678.28;;;21.73;70.13
78383;BME280;67668;52.294;4.692;2023-08-12T02:18:40;101669.34;;;21.72;69.86
78383;BME280;67668;52.294;4.692;2023-08-12T02:21:05;101670.38;;;21.71;70.85
78383;BME280;67668;52.294;4.692;2023-08-12T02:23:31;101669.75;;;21.69;71.01
78383;BME280;67668;52.294;4.692;2023-08-12T02:25:57;101675.13;;;21.69;70.75
78383;BME280;67668;52.294;4.692;2023-08-12T02:28:22;101666.22;;;21.69;70.94
78383;BME280;67668;52.294;4.692;2023-08-12T02:30:48;101661.03;;;21.67;72.09
78383;BME280;67668;52.294;4.692;2023-08-12T02:33:13;101660.38;;;21.65;71.29
78383;BME280;67668;52.294;4.692;2023-08-12T02:35:39;101658.72;;;21.64;70.98
78383;BME280;67668;52.294;4.692;2023-08-12T02:38:04;101659.75;;;21.63;71.57
78383;BME280;67668;52.294;4.692;2023-08-12T02:40:32;101655.38;;;21.62;72.69
78383;BME280;67668;52.294;4.692;2023-08-12T02:42:57;101657.44;;;21.60;71.76
78383;BME280;67668;52.294;4.692;2023-08-12T02:45:22;101656.59;;;21.59;72.64
78383;BME280;67668;52.294;4.692;2023-08-12T02:47:48;101651.22;;;21.59;71.72
78383;BME280;67668;52.294;4.692;2023-08-12T02:50:13;101654.94;;;21.58;72.48
78383;BME280;67668;52.294;4.692;2023-08-12T02:52:39;101659.47;;;21.58;72.29
78383;BME280;67668;52.294;4.692;2023-08-12T02:55:04;101647.06;;;21.57;72.31
78383;BME280;67668;52.294;4.692;2023-08-12T02:57:30;101647.25;;;21.55;72.30
78383;BME280;67668;52.294;4.692;2023-08-12T02:59:55;101650.94;;;21.54;73.98
78383;BME280;67668;52.294;4.692;2023-08-12T03:02:20;101643.91;;;21.53;72.66
78383;BME280;67668;52.294;4.692;2023-08-12T03:04:46;101649.31;;;21.53;72.25
78383;BME280;67668;52.294;4.692;2023-08-12T03:07:11;101648.25;;;21.54;72.68
78383;BME280;67668;52.294;4.692;2023-08-12T03:09:37;101638.31;;;21.55;72.94
78383;BME280;67668;52.294;4.692;2023-08-12T03:12:02;101641.00;;;21.55;73.57
78383;BME280;67668;52.294;4.692;2023-08-12T03:14:29;101636.47;;;21.55;72.77
78383;BME280;67668;52.294;4.692;2023-08-12T03:16:54;101625.91;;;21.54;72.85
78383;BME280;67668;52.294;4.692;2023-08-12T03:19:20;101628.38;;;21.55;73.16
78383;BME280;67668;52.294;4.692;2023-08-12T03:21:45;101625.91;;;21.54;73.00
78383;BME280;67668;52.294;4.692;2023-08-12T03:24:10;101623.19;;;21.54;72.93
78383;BME280;67668;52.294;4.692;2023-08-12T03:26:36;101618.84;;;21.53;73.27
78383;BME280;67668;52.294;4.692;2023-08-12T03:29:01;101611.59;;;21.53;73.80
78383;BME280;67668;52.294;4.692;2023-08-12T03:31:27;101608.91;;;21.53;73.48
78383;BME280;67668;52.294;4.692;2023-08-12T03:33:52;101611.78;;;21.52;73.38
78383;BME280;67668;52.294;4.692;2023-08-12T03:36:17;101609.91;;;21.52;73.59
78383;BME280;67668;52.294;4.692;2023-08-12T03:38:43;101607.22;;;21.52;73.97
78383;BME280;67668;52.294;4.692;2023-08-12T03:41:08;101594.59;;;21.53;74.07
78383;BME280;67668;52.294;4.692;2023-08-12T03:43:34;101597.66;;;21.50;73.68
78383;BME280;67668;52.294;4.692;2023-08-12T03:45:59;101599.34;;;21.51;73.52
78383;BME280;67668;52.294;4.692;2023-08-12T03:48:25;101586.91;;;21.50;73.74
78383;BME280;67668;52.294;4.692;2023-08-12T03:50:50;101589.59;;;21.50;73.74
78383;BME280;67668;52.294;4.692;2023-08-12T03:53:15;101579.84;;;21.49;73.85
78383;BME280;67668;52.294;4.692;2023-08-12T03:55:42;101578.16;;;21.48;73.80
78383;BME280;67668;52.294;4.692;2023-08-12T03:58:07;101571.13;;;21.47;73.75
78383;BME280;67668;52.294;4.692;2023-08-12T04:00:33;101580.22;;;21.46;74.30
78383;BME280;67668;52.294;4.692;2023-08-12T04:02:58;101578.53;;;21.45;74.38
78383;BME280;67668;52.294;4.692;2023-08-12T04:05:24;101593.06;;;21.44;74.85
78383;BME280;67668;52.294;4.692;2023-08-12T04:07:49;101586.00;;;21.43;74.50
78383;BME280;67668;52.294;4.692;2023-08-12T04:10:15;101583.31;;;21.43;74.26
78383;BME280;67668;52.294;4.692;2023-08-12T04:12:40;101583.50;;;21.41;74.05
78383;BME280;67668;52.294;4.692;2023-08-12T04:15:07;101574.59;;;21.41;74.09
78383;BME280;67668;52.294;4.692;2023-08-12T04:17:33;101571.91;;;21.41;74.33
78383;BME280;67668;52.294;4.692;2023-08-12T04:19:58;101575.63;;;21.40;74.37
78383;BME280;67668;52.294;4.692;2023-08-12T04:22:24;101570.22;;;21.40;74.68
78383;BME280;67668;52.294;4.692;2023-08-12T04:24:49;101563.16;;;21.39;75.57
78383;BME280;67668;52.294;4.692;2023-08-12T04:27:15;101556.13;;;21.38;74.97
78383;BME280;67668;52.294;4.692;2023-08-12T04:29:42;101550.72;;;21.38;74.51
78383;BME280;67668;52.294;4.692;2023-08-12T04:32:08;101544.31;;;21.39;74.59
78383;BME280;67668;52.294;4.692;2023-08-12T04:34:34;101544.53;;;21.37;74.52
78383;BME280;67668;52.294;4.692;2023-08-12T04:36:59;101550.72;;;21.38;74.52
78383;BME280;67668;52.294;4.692;2023-08-12T04:39:24;101545.34;;;21.38;75.12
78383;BME280;67668;52.294;4.692;2023-08-12T04:41:50;101539.31;;;21.36;74.82
78383;BME280;67668;52.294;4.692;2023-08-12T04:44:16;101539.31;;;21.36;74.80
78383;BME280;67668;52.294;4.692;2023-08-12T04:46:41;101543.69;;;21.37;74.91
78383;BME280;67668;52.294;4.692;2023-08-12T04:49:08;101537.66;;;21.35;74.70
78383;BME280;67668;52.294;4.692;2023-08-12T04:51:33;101534.16;;;21.34;74.90
78383;BME280;67668;52.294;4.692;2023-08-12T04:53:59;101531.47;;;21.34;74.83
78383;BME280;67668;52.294;4.692;2023-08-12T04:56:27;101530.63;;;21.34;75.37
78383;BME280;67668;52.294;4.692;2023-08-12T04:58:54;101537.03;;;21.33;74.93
78383;BME280;67668;52.294;4.692;2023-08-12T05:01:20;101531.47;;;21.34;75.04
78383;BME280;67668;52.294;4.692;2023-08-12T05:03:45;101533.31;;;21.34;75.16
78383;BME280;67668;52.294;4.692;2023-08-12T05:06:10;101523.56;;;21.33;75.01
78383;BME280;67668;52.294;4.692;2023-08-12T05:08:36;101528.94;;;21.33;75.38
78383;BME280;67668;52.294;4.692;2023-08-12T05:11:01;101517.34;;;21.32;75.34
78383;BME280;67668;52.294;4.692;2023-08-12T05:13:27;101518.19;;;21.33;75.20
78383;BME280;67668;52.294;4.692;2023-08-12T05:15:53;101519.19;;;21.32;75.31
78383;BME280;67668;52.294;4.692;2023-08-12T05:18:19;101509.47;;;21.31;75.55
78383;BME280;67668;52.294;4.692;2023-08-12T05:20:44;101504.28;;;21.29;75.56
78383;BME280;67668;52.294;4.692;2023-08-12T05:23:09;101506.13;;;21.29;75.52
78383;BME280;67668;52.294;4.692;2023-08-12T05:25:35;101519.59;;;21.29;75.61
78383;BME280;67668;52.294;4.692;2023-08-12T05:28:01;101520.44;;;21.29;75.83
78383;BME280;67668;52.294;4.692;2023-08-12T05:30:26;101524.97;;;21.29;75.94
78383;BME280;67668;52.294;4.692;2023-08-12T05:32:52;101524.97;;;21.29;75.62
78383;BME280;67668;52.294;4.692;2023-08-12T05:35:17;101519.59;;;21.29;75.51
78383;BME280;67668;52.294;4.692;2023-08-12T05:37:42;101528.50;;;21.29;75.68
78383;BME280;67668;52.294;4.692;2023-08-12T05:40:08;101531.19;;;21.29;76.02
78383;BME280;67668;52.294;4.692;2023-08-12T05:42:35;101526.66;;;21.30;76.11
78383;BME280;67668;52.294;4.692;2023-08-12T05:45:01;101530.34;;;21.29;76.35
78383;BME280;67668;52.294;4.692;2023-08-12T05:47:26;101533.25;;;21.27;76.05
78383;BME280;67668;52.294;4.692;2023-08-12T05:49:52;101538.66;;;21.27;76.02
78383;BME280;67668;52.294;4.692;2023-08-12T05:52:17;101536.78;;;21.28;76.34
78383;BME280;67668;52.294;4.692;2023-08-12T05:54:43;101532.44;;;21.27;76.21
78383;BME280;67668;52.294;4.692;2023-08-12T05:57:08;101523.31;;;21.28;76.17
78383;BME280;67668;52.294;4.692;2023-08-12T05:59:33;101524.53;;;21.25;76.82
78383;BME280;67668;52.294;4.692;2023-08-12T06:01:59;101524.53;;;21.25;77.46
78383;BME280;67668;52.294;4.692;2023-08-12T06:04:24;101524.53;;;21.25;76.49
78383;BME280;67668;52.294;4.692;2023-08-12T06:06:50;101517.69;;;21.23;76.40
78383;BME280;67668;52.294;4.692;2023-08-12T06:09:15;101526.59;;;21.23;76.51
78383;BME280;67668;52.294;4.692;2023-08-12T06:11:41;101533.84;;;21.23;76.83
78383;BME280;67668;52.294;4.692;2023-08-12T06:14:06;101522.22;;;21.22;76.62
78383;BME280;67668;52.294;4.692;2023-08-12T06:16:32;101524.09;;;21.22;76.69
78383;BME280;67668;52.294;4.692;2023-08-12T06:18:57;101512.69;;;21.20;76.93
78383;BME280;67668;52.294;4.692;2023-08-12T06:21:23;101511.66;;;21.21;77.47
78383;BME280;67668;52.294;4.692;2023-08-12T06:23:48;101514.38;;;21.21;77.32
78383;BME280;67668;52.294;4.692;2023-08-12T06:26:13;101515.19;;;21.21;77.16
78383;BME280;67668;52.294;4.692;2023-08-12T06:28:39;101510.00;;;21.20;77.08
78383;BME280;67668;52.294;4.692;2023-08-12T06:31:04;101506.28;;;21.21;76.82
78383;BME280;67668;52.294;4.692;2023-08-12T06:33:30;101506.28;;;21.21;76.73
78383;BME280;67668;52.294;4.692;2023-08-12T06:35:55;101502.94;;;21.19;76.39
78383;BME280;67668;52.294;4.692;2023-08-12T06:38:21;101508.97;;;21.21;76.66
78383;BME280;67668;52.294;4.692;2023-08-12T06:40:47;101505.44;;;21.20;76.76
78383;BME280;67668;52.294;4.692;2023-08-12T06:43:12;101497.38;;;21.20;76.95
78383;BME280;67668;52.294;4.692;2023-08-12T06:45:38;101496.53;;;21.20;77.26
78383;BME280;67668;52.294;4.692;2023-08-12T06:48:03;101494.69;;;21.20;76.83
78383;BME280;67668;52.294;4.692;2023-08-12T06:50:29;101489.28;;;21.20;77.37
78383;BME280;67668;52.294;4.692;2023-08-12T06:52:58;101495.50;;;21.21;77.24
78383;BME280;67668;52.294;4.692;2023-08-12T06:55:34;101484.31;;;21.17;77.03
78383;BME280;67668;52.294;4.692;2023-08-12T06:58:01;101488.44;;;21.20;77.51
78383;BME280;67668;52.294;4.692;2023-08-12T07:00:27;101484.75;;;21.21;77.44
78383;BME280;67668;52.294;4.692;2023-08-12T07:02:53;101487.44;;;21.21;77.26
78383;BME280;67668;52.294;4.692;2023-08-12T07:05:18;101484.94;;;21.19;77.18
78383;BME280;67668;52.294;4.692;2023-08-12T07:07:43;101483.06;;;21.20;77.23
78383;BME280;67668;52.294;4.692;2023-08-12T07:10:10;101494.69;;;21.20;77.34
78383;BME280;67668;52.294;4.692;2023-08-12T07:12:35;101495.50;;;21.21;77.38
78383;BME280;67668;52.294;4.692;2023-08-12T07:15:02;101489.28;;;21.20;77.82
78383;BME280;67668;52.294;4.692;2023-08-12T07:17:27;101500.06;;;21.20;77.59
78383;BME280;67668;52.294;4.692;2023-08-12T07:19:54;101510.84;;;21.20;77.69
78383;BME280;67668;52.294;4.692;2023-08-12T07:22:19;101522.44;;;21.21;78.14
78383;BME280;67668;52.294;4.692;2023-08-12T07:24:45;101525.13;;;21.21;78.26
78383;BME280;67668;52.294;4.692;2023-08-12T07:27:11;101520.75;;;21.20;77.80
78383;BME280;67668;52.294;4.692;2023-08-12T07:29:37;101526.53;;;21.17;77.54
78383;BME280;67668;52.294;4.692;2023-08-12T07:32:02;101533.59;;;21.18;77.15
78383;BME280;67668;52.294;4.692;2023-08-12T07:34:28;101543.53;;;21.17;77.38
78383;BME280;67668;52.294;4.692;2023-08-12T07:36:53;101550.09;;;21.14;77.34
78383;BME280;67668;52.294;4.692;2023-08-12T07:39:18;101554.25;;;21.10;76.59
78383;BME280;67668;52.294;4.692;2023-08-12T07:41:44;101550.84;;;21.08;76.62
78383;BME280;67668;52.294;4.692;2023-08-12T07:44:09;101541.69;;;21.03;74.58
78383;BME280;67668;52.294;4.692;2023-08-12T07:46:37;101538.38;;;21.01;75.08
78383;BME280;67668;52.294;4.692;2023-08-12T07:49:03;101538.38;;;21.01;74.82
78383;BME280;67668;52.294;4.692;2023-08-12T07:51:29;101538.56;;;20.99;74.86
78383;BME280;67668;52.294;4.692;2023-08-12T07:53:55;101536.88;;;20.98;74.24
78383;BME280;67668;52.294;4.692;2023-08-12T07:56:22;101525.50;;;20.96;73.94
78383;BME280;67668;52.294;4.692;2023-08-12T07:58:48;101529.19;;;20.95;74.69
78383;BME280;67668;52.294;4.692;2023-08-12T08:01:13;101543.31;;;20.97;74.49
78383;BME280;67668;52.294;4.692;2023-08-12T08:03:39;101549.72;;;20.96;74.41
78383;BME280;67668;52.294;4.692;2023-08-12T08:06:04;101556.13;;;20.95;74.06
78383;BME280;67668;52.294;4.692;2023-08-12T08:08:29;101564.19;;;20.95;74.19
78383;BME280;67668;52.294;4.692;2023-08-12T08:10:55;101565.22;;;20.94;74.13
78383;BME280;67668;52.294;4.692;2023-08-12T08:13:20;101562.72;;;20.93;74.11
78383;BME280;67668;52.294;4.692;2023-08-12T08:15:48;101565.59;;;20.91;73.66
78383;BME280;67668;52.294;4.692;2023-08-12T08:18:13;101558.56;;;20.90;73.82
78383;BME280;67668;52.294;4.692;2023-08-12T08:20:42;101552.34;;;20.90;73.76
78383;BME280;67668;52.294;4.692;2023-08-12T08:23:07;101550.88;;;20.87;73.84
78383;BME280;67668;52.294;4.692;2023-08-12T08:25:32;101549.03;;;20.88;73.77
78383;BME280;67668;52.294;4.692;2023-08-12T08:27:58;101541.13;;;20.86;73.27
78383;BME280;67668;52.294;4.692;2023-08-12T08:30:23;101543.81;;;20.86;73.38
78383;BME280;67668;52.294;4.692;2023-08-12T08:32:50;101547.53;;;20.85;73.61
78383;BME280;67668;52.294;4.692;2023-08-12T08:35:15;101548.56;;;20.84;73.48
78383;BME280;67668;52.294;4.692;2023-08-12T08:37:41;101545.03;;;20.84;73.38
78383;BME280;67668;52.294;4.692;2023-08-12T08:40:08;101541.50;;;20.83;73.71
78383;BME280;67668;52.294;4.692;2023-08-12T08:42:34;101550.59;;;20.82;73.33
78383;BME280;67668;52.294;4.692;2023-08-12T08:45:01;101550.59;;;20.82;73.68
78383;BME280;67668;52.294;4.692;2023-08-12T08:47:28;101540.03;;;20.81;73.38
78383;BME280;67668;52.294;4.692;2023-08-12T08:49:55;101531.97;;;20.81;73.82
78383;BME280;67668;52.294;4.692;2023-08-12T08:52:22;101546.44;;;20.80;73.69
78383;BME280;67668;52.294;4.692;2023-08-12T08:54:48;101542.91;;;20.79;74.17
78383;BME280;67668;52.294;4.692;2023-08-12T08:57:13;101537.34;;;20.81;73.98
78383;BME280;67668;52.294;4.692;2023-08-12T08:59:39;101540.88;;;20.81;74.67
78383;BME280;67668;52.294;4.692;2023-08-12T09:02:05;101537.97;;;20.83;74.44
78383;BME280;67668;52.294;4.692;2023-08-12T09:04:34;101534.44;;;20.82;74.38
78383;BME280;67668;52.294;4.692;2023-08-12T09:07:01;101529.06;;;20.82;74.59
78383;BME280;67668;52.294;4.692;2023-08-12T09:09:27;101536.97;;;20.84;74.85
78383;BME280;67668;52.294;4.692;2023-08-12T09:11:54;101545.88;;;20.84;75.08
78383;BME280;67668;52.294;4.692;2023-08-12T09:14:21;101542.13;;;20.85;74.85
78383;BME280;67668;52.294;4.692;2023-08-12T09:16:46;101555.41;;;20.87;75.37
78383;BME280;67668;52.294;4.692;2023-08-12T09:19:12;101545.28;;;20.89;75.70
78383;BME280;67668;52.294;4.692;2023-08-12T09:21:37;101545.09;;;20.90;75.64
78383;BME280;67668;52.294;4.692;2023-08-12T09:24:04;101554.66;;;20.93;76.87
78383;BME280;67668;52.294;4.692;2023-08-12T09:26:33;101533.56;;;20.96;76.43
78383;BME280;67668;52.294;4.692;2023-08-12T09:28:59;101560.72;;;21.01;77.10
78383;BME280;67668;52.294;4.692;2023-08-12T09:31:28;101557.28;;;21.07;77.36
78383;BME280;67668;52.294;4.692;2023-08-12T09:33:58;101558.41;;;21.13;76.51
78383;BME280;67668;52.294;4.692;2023-08-12T09:36:27;101582.88;;;21.18;76.16
78383;BME280;67668;52.294;4.692;2023-08-12T09:38:53;101576.06;;;21.22;75.91
78383;BME280;67668;52.294;4.692;2023-08-12T09:41:19;101586.28;;;21.27;75.36
78383;BME280;67668;52.294;4.692;2023-08-12T09:43:44;101590.25;;;21.31;74.96
78383;BME280;67668;52.294;4.692;2023-08-12T09:46:11;101585.13;;;21.36;74.52
78383;BME280;67668;52.294;4.692;2023-08-12T09:48:38;101589.72;;;21.42;75.25
78383;BME280;67668;52.294;4.692;2023-08-12T09:51:04;101590.59;;;21.49;74.99
78383;BME280;67668;52.294;4.692;2023-08-12T09:53:29;101587.72;;;21.50;71.31
78383;BME280;67668;52.294;4.692;2023-08-12T09:55:57;101580.09;;;21.54;72.30
78383;BME280;67668;52.294;4.692;2023-08-12T09:58:25;101586.72;;;21.58;72.68
78383;BME280;67668;52.294;4.692;2023-08-12T10:00:51;101589.25;;;21.59;71.80
78383;BME280;67668;52.294;4.692;2023-08-12T10:03:17;101588.69;;;21.64;72.47
78383;BME280;67668;52.294;4.692;2023-08-12T10:05:44;101585.38;;;21.69;72.88
78383;BME280;67668;52.294;4.692;2023-08-12T10:08:12;101581.09;;;21.74;73.35
78383;BME280;67668;52.294;4.692;2023-08-12T10:10:39;101591.06;;;21.80;73.56
78383;BME280;67668;52.294;4.692;2023-08-12T10:13:05;101596.28;;;21.88;73.29
78383;BME280;67668;52.294;4.692;2023-08-12T10:15:33;101583.09;;;21.93;73.10
78383;BME280;67668;52.294;4.692;2023-08-12T10:17:59;101572.53;;;21.98;72.78
78383;BME280;67668;52.294;4.692;2023-08-12T10:20:25;101583.97;;;22.00;71.83
78383;BME280;67668;52.294;4.692;2023-08-12T10:22:51;101583.38;;;22.05;71.67
78383;BME280;67668;52.294;4.692;2023-08-12T10:25:20;101573.66;;;22.10;70.90
78383;BME280;67668;52.294;4.692;2023-08-12T10:27:49;101577.41;;;22.16;70.98
78383;BME280;67668;52.294;4.692;2023-08-12T10:30:14;101575.78;;;22.22;70.89
78383;BME280;67668;52.294;4.692;2023-08-12T10:32:40;101579.16;;;22.30;71.21
78383;BME280;67668;52.294;4.692;2023-08-12T10:35:07;101570.03;;;22.38;70.91
78383;BME280;67668;52.294;4.692;2023-08-12T10:37:34;101576.94;;;22.47;71.42
78383;BME280;67668;52.294;4.692;2023-08-12T10:40:03;101580.47;;;22.54;69.25
78383;BME280;67668;52.294;4.692;2023-08-12T10:45:08;101583.91;;;22.76;71.27
78383;BME280;67668;52.294;4.692;2023-08-12T10:47:41;101580.41;;;22.88;69.75
78383;BME280;67668;52.294;4.692;2023-08-12T10:50:17;101574.00;;;23.02;67.36
78383;BME280;67668;52.294;4.692;2023-08-12T10:52:43;101573.00;;;23.23;66.64
78383;BME280;67668;52.294;4.692;2023-08-12T10:55:17;101571.56;;;23.53;66.71
78383;BME280;67668;52.294;4.692;2023-08-12T10:57:43;101573.44;;;23.66;65.21
78383;BME280;67668;52.294;4.692;2023-08-12T11:00:20;101566.38;;;23.72;64.53
78383;BME280;67668;52.294;4.692;2023-08-12T11:02:52;101562.81;;;23.84;65.83
78383;BME280;67668;52.294;4.692;2023-08-12T11:05:19;101566.91;;;24.00;65.57
78383;BME280;67668;52.294;4.692;2023-08-12T11:07:48;101560.69;;;24.12;64.62
78383;BME280;67668;52.294;4.692;2023-08-12T11:10:19;101572.06;;;24.28;64.89
78383;BME280;67668;52.294;4.692;2023-08-12T11:17:54;101570.59;;;24.76;60.90
78383;BME280;67668;52.294;4.692;2023-08-12T11:20:21;101564.47;;;24.94;59.56
78383;BME280;67668;52.294;4.692;2023-08-12T11:22:46;101571.09;;;25.04;59.56
78383;BME280;67668;52.294;4.692;2023-08-12T11:25:13;101576.00;;;25.14;59.82
78383;BME280;67668;52.294;4.692;2023-08-12T11:27:44;101576.00;;;25.14;58.22
78383;BME280;67668;52.294;4.692;2023-08-12T11:30:12;101569.06;;;25.25;59.10
78383;BME280;67668;52.294;4.692;2023-08-12T11:32:41;101582.50;;;25.38;58.83
78383;BME280;67668;52.294;4.692;2023-08-12T11:35:08;101587.84;;;25.51;59.03
78383;BME280;67668;52.294;4.692;2023-08-12T11:37:38;101590.66;;;25.62;55.53
78383;BME280;67668;52.294;4.692;2023-08-12T11:40:05;101589.03;;;25.80;57.47
78383;BME280;67668;52.294;4.692;2023-08-12T11:42:31;101581.59;;;25.93;58.41
78383;BME280;67668;52.294;4.692;2023-08-12T11:44:57;101582.28;;;26.07;54.86
78383;BME280;67668;52.294;4.692;2023-08-12T11:47:22;101583.25;;;26.12;54.10
78383;BME280;67668;52.294;4.692;2023-08-12T11:49:48;101580.50;;;26.19;55.59
78383;BME280;67668;52.294;4.692;2023-08-12T11:52:13;101582.53;;;26.24;55.35
78383;BME280;67668;52.294;4.692;2023-08-12T11:54:39;101577.88;;;26.31;53.89
78383;BME280;67668;52.294;4.692;2023-08-12T11:57:06;101569.03;;;26.35;54.02
78383;BME280;67668;52.294;4.692;2023-08-12T11:59:32;101581.00;;;26.46;56.21
78383;BME280;67668;52.294;4.692;2023-08-12T12:02:01;101578.28;;;26.46;53.30
78383;BME280;67668;52.294;4.692;2023-08-12T12:04:27;101587.94;;;26.60;53.40
78383;BME280;67668;52.294;4.692;2023-08-12T12:06:53;101575.19;;;26.60;52.15
78383;BME280;67668;52.294;4.692;2023-08-12T12:09:19;101573.59;;;26.71;53.98
78383;BME280;67668;52.294;4.692;2023-08-12T12:11:45;101581.81;;;26.83;53.47
78383;BME280;67668;52.294;4.692;2023-08-12T12:14:11;101579.34;;;26.93;53.44
78383;BME280;67668;52.294;4.692;2023-08-12T12:16:41;101571.09;;;26.99;51.55
78383;BME280;67668;52.294;4.692;2023-08-12T12:19:18;101583.44;;;27.13;52.80
78383;BME280;67668;52.294;4.692;2023-08-12T12:21:50;101587.72;;;27.21;50.36
78383;BME280;67668;52.294;4.692;2023-08-12T12:24:16;101584.19;;;27.32;51.25
78383;BME280;67668;52.294;4.692;2023-08-12T12:26:44;101585.41;;;27.48;51.61
78383;BME280;67668;52.294;4.692;2023-08-12T12:29:10;101595.00;;;27.62;50.86
78383;BME280;67668;52.294;4.692;2023-08-12T12:31:39;101598.06;;;27.65;49.59
78383;BME280;67668;52.294;4.692;2023-08-12T12:34:05;101600.47;;;27.73;50.46
78383;BME280;67668;52.294;4.692;2023-08-12T12:36:34;101602.34;;;27.85;51.15
78383;BME280;67668;52.294;4.692;2023-08-12T12:38:59;101604.59;;;27.99;50.79
78383;BME280;67668;52.294;4.692;2023-08-12T12:41:26;101600.59;;;28.13;50.67
78383;BME280;67668;52.294;4.692;2023-08-12T12:43:51;101607.78;;;28.19;47.99
78383;BME280;67668;52.294;4.692;2023-08-12T12:46:17;101610.47;;;28.31;49.10
78383;BME280;67668;52.294;4.692;2023-08-12T12:48:43;101615.44;;;28.34;46.65
78383;BME280;67668;52.294;4.692;2023-08-12T12:51:08;101612.13;;;28.32;48.04
78383;BME280;67668;52.294;4.692;2023-08-12T12:53:34;101620.75;;;28.41;48.91